createdAt,value
2022-08-04T00:00:53.029Z,24.58
2022-08-04T00:06:30.774Z,24.55
2022-08-04T00:11:54.184Z,24.55
2022-08-04T00:17:20.476Z,24.55
2022-08-04T00:22:46.409Z,24.47
2022-08-04T00:28:08.956Z,24.43
2022-08-04T00:33:31.278Z,24.36
2022-08-04T00:38:53.519Z,24.34
2022-08-04T00:44:42.778Z,24.28
2022-08-04T00:50:29.172Z,24.16
2022-08-04T00:55:59.400Z,24.12
2022-08-04T01:01:59.153Z,24.13
2022-08-04T01:07:35.783Z,24.15
2022-08-04T01:13:15.296Z,24.10
2022-08-04T01:18:52.600Z,24.04
2022-08-04T01:24:33.902Z,23.95
2022-08-04T01:29:59.302Z,23.90
2022-08-04T01:35:47.695Z,23.88
2022-08-04T01:41:14.072Z,23.86
2022-08-04T01:46:36.476Z,23.77
2022-08-04T01:51:59.332Z,23.69
2022-08-04T01:57:38.270Z,23.64
2022-08-04T02:03:00.822Z,23.59
2022-08-04T02:08:38.251Z,23.61
2022-08-04T02:14:45.070Z,23.53
2022-08-04T02:20:16.906Z,23.40
2022-08-04T02:25:52.170Z,23.32
2022-08-04T02:31:29.266Z,23.37
2022-08-04T02:36:52.789Z,23.34
2022-08-04T02:42:15.373Z,23.37
2022-08-04T02:48:29.357Z,23.30
2022-08-04T02:53:23.123Z,23.27
2022-08-04T02:58:49.098Z,23.28
2022-08-04T03:04:26.079Z,23.22
2022-08-04T03:10:24.507Z,23.10
2022-08-04T03:16:04.553Z,23.05
2022-08-04T03:21:29.035Z,22.98
2022-08-04T03:27:07.302Z,22.99
2022-08-04T03:32:58.578Z,22.91
2022-08-04T03:38:28.973Z,22.91
2022-08-04T03:44:09.346Z,22.94
2022-08-04T03:49:46.136Z,22.94
2022-08-04T03:55:39.000Z,22.87
2022-08-04T04:01:06.492Z,22.88
2022-08-04T04:06:40.132Z,22.76
2022-08-04T04:12:31.792Z,22.61
2022-08-04T04:18:16.466Z,22.64
2022-08-04T04:23:52.320Z,22.65
2022-08-04T04:29:29.632Z,22.62
2022-08-04T04:35:00.289Z,22.64
2022-08-04T04:40:50.461Z,22.61
2022-08-04T04:46:15.782Z,22.67
2022-08-04T04:51:55.817Z,22.64
2022-08-04T04:57:20.930Z,22.55
2022-08-04T05:03:29.518Z,22.57
2022-08-04T05:09:28.769Z,22.67
2022-08-04T05:14:53.486Z,22.73
2022-08-04T05:20:15.320Z,22.76
2022-08-04T05:26:00.335Z,22.82
2022-08-04T05:31:34.552Z,22.85
2022-08-04T05:37:00.333Z,22.81
2022-08-04T05:42:23.423Z,22.82
2022-08-04T05:47:46.615Z,22.85
2022-08-04T05:53:11.166Z,22.90
2022-08-04T05:58:34.769Z,22.94
2022-08-04T06:03:59.942Z,22.99
2022-08-04T06:09:21.681Z,23.07
2022-08-04T06:14:45.820Z,23.13
2022-08-04T06:20:18.902Z,23.23
2022-08-04T06:25:50.180Z,23.27
2022-08-04T06:32:27.634Z,23.37
2022-08-04T06:36:56.105Z,23.48
2022-08-04T06:42:22.991Z,23.64
2022-08-04T06:47:46.072Z,23.81
2022-08-04T06:53:07.813Z,23.95
2022-08-04T06:58:32.108Z,24.07
2022-08-04T07:03:54.175Z,24.15
2022-08-04T07:09:16.246Z,24.21
2022-08-04T07:14:40.099Z,24.30
2022-08-04T07:20:03.805Z,24.38
2022-08-04T07:25:58.826Z,24.48
2022-08-04T07:31:10.502Z,24.63
2022-08-04T07:36:55.187Z,24.75
2022-08-04T07:42:21.462Z,24.95
2022-08-04T07:48:04.723Z,25.40
2022-08-04T07:53:55.437Z,26.16
2022-08-04T07:59:09.268Z,26.36
2022-08-04T08:04:32.527Z,26.14
2022-08-04T08:09:54.266Z,25.91
2022-08-04T08:15:16.235Z,25.86
2022-08-04T08:20:38.098Z,25.90
2022-08-04T08:26:00.329Z,26.01
2022-08-04T08:31:22.086Z,26.25
2022-08-04T08:37:28.341Z,26.25
2022-08-04T08:44:03.794Z,26.48
2022-08-04T08:50:00.323Z,26.73
2022-08-04T08:55:47.423Z,27.15
2022-08-04T09:01:21.038Z,27.04
2022-08-04T09:07:03.289Z,27.03
2022-08-04T09:12:41.533Z,27.05
2022-08-04T09:18:07.599Z,27.14
2022-08-04T09:24:35.477Z,27.27
2022-08-04T09:30:04.171Z,27.32
2022-08-04T09:35:54.813Z,27.44
2022-08-04T09:41:48.566Z,27.53
2022-08-04T09:47:25.682Z,27.68
2022-08-04T09:53:13.707Z,27.91
2022-08-04T09:58:52.656Z,28.10
2022-08-04T10:04:17.835Z,28.18
2022-08-04T10:10:03.026Z,28.33
2022-08-04T10:15:40.264Z,28.35
2022-08-04T10:21:15.498Z,28.62
2022-08-04T10:26:59.976Z,28.90
2022-08-04T10:32:25.023Z,28.84
2022-08-04T10:38:09.990Z,28.89
2022-08-04T10:44:01.125Z,29.11
2022-08-04T10:49:33.764Z,29.06
2022-08-04T10:55:15.394Z,29.17
2022-08-04T11:00:43.143Z,29.32
2022-08-04T11:06:05.374Z,29.55
2022-08-04T11:12:00.458Z,29.77
2022-08-04T11:17:26.440Z,29.85
2022-08-04T11:22:58.387Z,29.92
2022-08-04T11:28:26.594Z,30.32
2022-08-04T11:34:16.404Z,30.44
2022-08-04T11:39:51.854Z,30.49
2022-08-04T11:45:18.005Z,30.60
2022-08-04T11:50:45.103Z,30.84
2022-08-04T11:56:12.612Z,30.82
2022-08-04T12:01:53.071Z,31.12
2022-08-04T12:07:40.499Z,31.29
2022-08-04T12:13:40.734Z,31.07
2022-08-04T12:19:08.648Z,30.80
2022-08-04T12:24:41.825Z,30.71
2022-08-04T12:31:01.681Z,30.75
2022-08-04T12:36:12.465Z,30.93
2022-08-04T12:41:40.260Z,31.07
2022-08-04T12:47:26.978Z,31.07
2022-08-04T12:53:06.638Z,31.03
2022-08-04T12:58:43.607Z,30.88
2022-08-04T13:04:18.109Z,31.35
2022-08-04T13:09:40.515Z,31.25
2022-08-04T13:15:18.530Z,31.24
2022-08-04T13:20:41.087Z,31.39
2022-08-04T13:26:45.251Z,31.37
2022-08-04T13:31:52.701Z,31.61
2022-08-04T13:37:21.034Z,31.73
2022-08-04T13:42:47.153Z,31.68
2022-08-04T13:48:20.229Z,31.58
2022-08-04T13:53:58.027Z,31.81
2022-08-04T13:59:26.146Z,31.96
2022-08-04T14:04:54.240Z,32.25
2022-08-04T14:10:16.136Z,32.11
2022-08-04T14:16:02.790Z,32.05
2022-08-04T14:21:25.047Z,32.30
2022-08-04T14:26:46.827Z,32.38
2022-08-04T14:32:12.669Z,32.24
2022-08-04T14:37:47.376Z,32.29
2022-08-04T14:43:10.598Z,32.40
2022-08-04T14:48:33.350Z,32.45
2022-08-04T14:53:55.080Z,32.41
2022-08-04T14:59:16.862Z,32.36
2022-08-04T15:04:40.202Z,32.51
2022-08-04T15:10:02.209Z,32.40
2022-08-04T15:15:36.545Z,32.33
2022-08-04T15:21:02.285Z,32.24
2022-08-04T15:26:43.053Z,32.21
2022-08-04T15:32:09.385Z,32.22
2022-08-04T15:37:42.589Z,32.22
2022-08-04T15:43:37.761Z,32.22
2022-08-04T15:49:18.918Z,32.24
2022-08-04T15:54:52.053Z,32.23
2022-08-04T16:00:15.423Z,32.17
2022-08-04T16:05:39.107Z,32.17
2022-08-04T16:11:00.869Z,32.05
2022-08-04T16:16:34.405Z,32.07
2022-08-04T16:22:00.186Z,32.11
2022-08-04T16:27:36.056Z,31.96
2022-08-04T16:32:58.406Z,31.85
2022-08-04T16:38:20.128Z,31.96
2022-08-04T16:43:42.149Z,31.90
2022-08-04T16:49:07.240Z,31.85
2022-08-04T16:54:31.488Z,31.81
2022-08-04T16:59:53.299Z,31.67
2022-08-04T17:05:39.824Z,31.64
2022-08-04T17:11:03.095Z,31.62
2022-08-04T17:16:30.317Z,31.59
2022-08-04T17:22:02.303Z,31.73
2022-08-04T17:28:19.283Z,31.54
2022-08-04T17:33:14.952Z,31.45
2022-08-04T17:38:45.664Z,31.37
2022-08-04T17:44:14.034Z,31.34
2022-08-04T17:49:52.894Z,31.39
2022-08-04T17:55:20.445Z,31.36
2022-08-04T18:00:42.818Z,31.24
2022-08-04T18:06:13.454Z,31.19
2022-08-04T18:11:41.821Z,31.10
2022-08-04T18:22:48.508Z,30.96
2022-08-04T18:28:14.309Z,30.83
2022-08-04T18:33:41.587Z,30.74
2022-08-04T18:39:12.489Z,30.60
2022-08-04T18:44:52.636Z,30.48
2022-08-04T18:50:59.887Z,30.35
2022-08-04T18:55:58.412Z,30.20
2022-08-04T19:01:20.534Z,30.08
2022-08-04T19:06:52.168Z,29.97
2022-08-04T19:12:13.940Z,29.85
2022-08-04T19:17:57.085Z,29.75
2022-08-04T19:24:10.929Z,29.65
2022-08-04T19:29:04.201Z,29.58
2022-08-04T19:34:33.295Z,29.51
2022-08-04T19:39:56.800Z,29.44
2022-08-04T19:45:40.144Z,29.33
2022-08-04T19:51:04.001Z,29.23
2022-08-04T19:56:26.299Z,29.15
2022-08-04T20:01:48.052Z,29.06
2022-08-04T20:07:14.159Z,28.92
2022-08-04T20:12:36.480Z,28.80
2022-08-04T20:18:07.862Z,28.73
2022-08-04T20:23:48.837Z,28.60
2022-08-04T20:29:11.737Z,28.50
2022-08-04T20:34:55.494Z,28.45
2022-08-04T20:40:18.008Z,28.34
2022-08-04T20:45:57.068Z,28.33
2022-08-04T20:51:25.884Z,28.32
2022-08-04T20:56:56.509Z,28.28
2022-08-04T21:02:21.915Z,28.28
2022-08-04T21:07:48.770Z,28.16
2022-08-04T21:13:10.810Z,28.07
2022-08-04T21:18:32.548Z,28.00
2022-08-04T21:23:54.286Z,27.92
2022-08-04T21:35:00.395Z,27.78
2022-08-04T21:40:36.744Z,27.68
2022-08-04T21:46:04.070Z,27.64
2022-08-04T21:52:00.043Z,27.53
2022-08-04T21:57:14.754Z,27.49
2022-08-04T22:02:36.795Z,27.49
2022-08-04T22:07:58.576Z,27.35
2022-08-04T22:13:22.719Z,27.35
2022-08-04T22:18:44.688Z,27.29
2022-08-04T22:24:06.834Z,27.22
2022-08-04T22:29:39.232Z,27.23
2022-08-04T22:35:35.493Z,27.26
2022-08-04T22:40:47.564Z,27.25
2022-08-04T22:46:23.361Z,27.09
2022-08-04T22:51:50.603Z,27.02
2022-08-04T22:57:12.661Z,26.93
2022-08-04T23:02:35.555Z,26.91
2022-08-04T23:07:58.109Z,26.83
2022-08-04T23:13:25.967Z,26.83
2022-08-04T23:18:48.951Z,26.83
2022-08-04T23:24:11.055Z,26.81
2022-08-04T23:29:53.220Z,26.70
2022-08-04T23:35:16.656Z,26.58
2022-08-04T23:40:50.237Z,26.54
2022-08-04T23:46:13.180Z,26.51
2022-08-04T23:51:35.053Z,26.51
2022-08-04T23:56:57.415Z,26.42
